KCRQ

Mc Clellan-Palomar Airport

Carlsbad, California, USA
METAR KCRQ 260253Z AUTO 00000KT 10SM CLR 14/M01 A3010 RMK AO2 SLP191 T01391006 58000
Observed Flight Rules
Feb-26 @ 02:53 UTC (36 minutes ago) Visual Flight Rules
Wind Visibility Clouds
Calm 10 miles
  • Clear skies
Temperatures Readings
Current 14°C / 57°F
Dewpoint -1°C / 30°F
Humidity 36%
Altimeter 30.1" Hg
Pressure 1019.1 hPa
Elevation 99
METAR KCRQ 260253Z AUTO 00000KT 10SM CLR 14/M01 A3010 RMK AO2 SLP191 T01391006 58000
Observed Flight Rules
Feb-26 @ 02:53 UTC
(36 minutes ago)
VFR
Wind Visibility
Calm 10 miles
Clouds
  • Clear skies
Temperature Dewpoint
14°C / 57°F -1°C / 30°F
Humidity Altimeter Pressure
36% 30.1" Hg 1019.1 hPa